createdAt,value
2018-04-14T00:00:19.516Z,0
2018-04-14T00:01:19.542Z,0
2018-04-14T00:02:19.232Z,0
2018-04-14T00:03:19.221Z,0
2018-04-14T00:04:19.184Z,0
2018-04-14T00:05:19.423Z,0
2018-04-14T00:06:19.397Z,0
2018-04-14T00:07:18.867Z,0
2018-04-14T00:08:19.091Z,0
2018-04-14T00:09:19.080Z,0
2018-04-14T00:10:19.303Z,0
2018-04-14T00:11:19.379Z,0
2018-04-14T00:12:19.009Z,0
2018-04-14T00:13:19.807Z,0
2018-04-14T00:14:19.208Z,0
2018-04-14T00:15:18.942Z,0
2018-04-14T00:16:19.467Z,0
2018-04-14T00:17:18.898Z,0
2018-04-14T00:18:18.884Z,0
2018-04-14T00:19:18.607Z,0
2018-04-14T00:20:18.835Z,0
2018-04-14T00:21:19.066Z,0
2018-04-14T00:22:18.789Z,0
2018-04-14T00:23:19.016Z,0
2018-04-14T00:24:18.990Z,0
2018-04-14T00:25:18.974Z,0
2018-04-14T00:26:18.206Z,0
2018-04-14T00:27:18.772Z,0
2018-04-14T00:28:18.905Z,0
2018-04-14T00:29:18.887Z,0
2018-04-14T00:30:18.611Z,0
2018-04-14T00:31:18.343Z,0
2018-04-14T00:32:18.818Z,0
2018-04-14T00:33:18.793Z,0
2018-04-14T00:34:18.785Z,0
2018-04-14T00:35:18.744Z,0
2018-04-14T00:36:18.726Z,0
2018-04-14T00:37:18.208Z,0
2018-04-14T00:38:18.693Z,0
2018-04-14T00:39:18.717Z,0
2018-04-14T00:40:18.396Z,0
2018-04-14T00:41:18.123Z,0
2018-04-14T00:42:18.593Z,0
2018-04-14T00:43:18.329Z,0
2018-04-14T00:44:18.557Z,0
2018-04-14T00:45:18.538Z,0
2018-04-14T00:46:18.011Z,0
2018-04-14T00:47:18.485Z,0
2018-04-14T00:48:18.477Z,0
2018-04-14T00:49:18.440Z,0
2018-04-14T00:50:18.458Z,0
2018-04-14T00:51:18.398Z,0
2018-04-14T00:52:18.121Z,0
2018-04-14T00:53:18.110Z,0
2018-04-14T00:54:17.833Z,0
2018-04-14T00:55:18.307Z,0
2018-04-14T00:56:18.297Z,0
2018-04-14T00:57:18.025Z,0
2018-04-14T00:58:18.008Z,0
2018-04-14T00:59:18.025Z,0
2018-04-14T01:00:18.206Z,0
2018-04-14T01:01:17.938Z,0
2018-04-14T01:02:18.156Z,0
2018-04-14T01:03:18.138Z,0
2018-04-14T01:04:18.123Z,0
2018-04-14T01:05:17.856Z,0
2018-04-14T01:06:17.826Z,0
2018-04-14T01:07:17.553Z,0
2018-04-14T01:08:17.784Z,0
2018-04-14T01:09:18.017Z,0
2018-04-14T01:10:17.988Z,0
2018-04-14T01:11:17.717Z,0
2018-04-14T01:12:17.701Z,0
2018-04-14T01:13:17.924Z,0
2018-04-14T01:14:17.652Z,0
2018-04-14T01:15:17.884Z,0
2018-04-14T01:16:17.859Z,0
2018-04-14T01:17:17.587Z,0
2018-04-14T01:18:17.563Z,0
2018-04-14T01:19:17.791Z,0
2018-04-14T01:20:17.818Z,0
2018-04-14T01:21:17.502Z,0
2018-04-14T01:22:17.486Z,0
2018-04-14T01:23:17.706Z,0
2018-04-14T01:24:17.692Z,0
2018-04-14T01:25:17.664Z,0
2018-04-14T01:26:17.389Z,0
2018-04-14T01:27:17.380Z,0
2018-04-14T01:28:17.357Z,0
2018-04-14T01:29:17.328Z,0
2018-04-14T01:30:17.560Z,0
2018-04-14T01:31:17.303Z,0
2018-04-14T01:32:17.011Z,0
2018-04-14T01:33:17.488Z,0
2018-04-14T01:34:17.465Z,0
2018-04-14T01:35:17.198Z,0
2018-04-14T01:36:16.926Z,0
2018-04-14T01:37:17.410Z,0
2018-04-14T01:38:17.381Z,0
2018-04-14T01:39:17.363Z,0
2018-04-14T01:40:17.103Z,0
2018-04-14T01:41:17.073Z,0
2018-04-14T01:42:17.301Z,0
2018-04-14T01:43:17.273Z,0
2018-04-14T01:44:17.002Z,0
2018-04-14T01:45:17.278Z,0
2018-04-14T01:46:16.716Z,0
2018-04-14T01:47:17.193Z,0
2018-04-14T01:48:16.914Z,0
2018-04-14T01:49:16.894Z,0
2018-04-14T01:50:17.123Z,0
2018-04-14T01:51:16.612Z,0
2018-04-14T01:52:16.833Z,0
2018-04-14T01:53:17.057Z,0
2018-04-14T01:54:16.894Z,0
2018-04-14T01:55:16.765Z,0
2018-04-14T01:56:16.999Z,0
2018-04-14T01:57:16.974Z,0
2018-04-14T01:58:16.456Z,0
2018-04-14T01:59:16.689Z,0
2018-04-14T02:00:16.652Z,0
2018-04-14T02:01:16.888Z,0
2018-04-14T02:02:16.615Z,0
2018-04-14T02:03:16.839Z,0
2018-04-14T02:04:16.577Z,0
2018-04-14T02:05:16.809Z,0
2018-04-14T02:06:16.782Z,0
2018-04-14T02:07:16.761Z,0
2018-04-14T02:08:16.244Z,0
2018-04-14T02:09:16.701Z,0
2018-04-14T02:10:16.686Z,0
2018-04-14T02:11:16.669Z,0
2018-04-14T02:12:16.639Z,0
2018-04-14T02:13:16.127Z,0
2018-04-14T02:14:16.097Z,0
2018-04-14T02:15:16.078Z,0
2018-04-14T02:16:16.554Z,0
2018-04-14T02:17:16.536Z,0
2018-04-14T02:18:16.508Z,0
2018-04-14T02:19:16.243Z,0
2018-04-14T02:20:16.224Z,0
2018-04-14T02:21:16.454Z,0
2018-04-14T02:22:16.415Z,0
2018-04-14T02:23:16.425Z,0
2018-04-14T02:24:16.133Z,0
2018-04-14T02:25:15.871Z,0
2018-04-14T02:26:16.340Z,0
2018-04-14T02:27:16.066Z,0
2018-04-14T02:28:16.044Z,0
2018-04-14T02:29:16.272Z,0
2018-04-14T02:30:16.256Z,0
2018-04-14T02:31:15.736Z,0
2018-04-14T02:32:15.735Z,0
2018-04-14T02:33:16.193Z,0
2018-04-14T02:34:16.194Z,0
2018-04-14T02:35:15.908Z,0
2018-04-14T02:36:16.134Z,0
2018-04-14T02:37:16.092Z,0
2018-04-14T02:38:16.079Z,0
2018-04-14T02:39:15.562Z,0
2018-04-14T02:40:15.797Z,0
2018-04-14T02:41:16.019Z,0
2018-04-14T02:42:15.752Z,0
2018-04-14T02:43:15.462Z,0
2018-04-14T02:44:15.444Z,0
2018-04-14T02:45:15.438Z,0
2018-04-14T02:46:15.408Z,0
2018-04-14T02:47:15.636Z,0
2018-04-14T02:48:15.849Z,0
2018-04-14T02:49:15.855Z,0
2018-04-14T02:50:15.562Z,0
2018-04-14T02:51:15.796Z,0
2018-04-14T02:52:15.868Z,0
2018-04-14T02:53:15.514Z,0
2018-04-14T02:54:15.237Z,0
2018-04-14T02:55:14.967Z,0
2018-04-14T02:56:14.933Z,0
2018-04-14T02:57:14.910Z,0
2018-04-14T02:58:15.388Z,0
2018-04-14T02:59:15.383Z,0
2018-04-14T03:00:15.344Z,0
2018-04-14T03:01:15.332Z,0
2018-04-14T03:02:15.547Z,0
2018-04-14T03:03:15.297Z,0
2018-04-14T03:04:15.012Z,0
2018-04-14T03:05:15.235Z,0
2018-04-14T03:06:15.214Z,0
2018-04-14T03:07:15.199Z,0
2018-04-14T03:08:15.174Z,0
2018-04-14T03:09:15.175Z,0
2018-04-14T03:10:15.213Z,0
2018-04-14T03:11:15.108Z,0
2018-04-14T03:12:15.336Z,0
2018-04-14T03:13:15.055Z,0
2018-04-14T03:14:14.789Z,0
2018-04-14T03:15:15.256Z,0
2018-04-14T03:16:15.239Z,0
2018-04-14T03:17:15.214Z,0
2018-04-14T03:18:14.945Z,0
2018-04-14T03:19:14.929Z,0
2018-04-14T03:20:14.900Z,0
2018-04-14T03:21:14.887Z,0
2018-04-14T03:22:15.118Z,0
2018-04-14T03:23:15.085Z,0
2018-04-14T03:24:15.061Z,0
2018-04-14T03:25:14.547Z,0
2018-04-14T03:26:14.766Z,0
2018-04-14T03:27:14.995Z,0
2018-04-14T03:28:14.977Z,0
2018-04-14T03:29:14.706Z,0
2018-04-14T03:30:14.948Z,0
2018-04-14T03:31:15.029Z,0
2018-04-14T03:32:14.876Z,0
2018-04-14T03:33:14.871Z,0
2018-04-14T03:34:14.839Z,0
2018-04-14T03:35:14.570Z,0
2018-04-14T03:36:14.297Z,0
2018-04-14T03:37:14.776Z,0
2018-04-14T03:38:14.519Z,0
2018-04-14T03:39:14.748Z,0
2018-04-14T03:40:14.448Z,0
2018-04-14T03:41:14.430Z,0
2018-04-14T03:42:13.919Z,0
2018-04-14T03:43:14.636Z,0
2018-04-14T03:44:14.377Z,0
2018-04-14T03:45:14.102Z,0
2018-04-14T03:46:14.569Z,0
2018-04-14T03:47:14.556Z,0
2018-04-14T03:48:14.543Z,0
2018-04-14T03:49:14.503Z,0
2018-04-14T03:50:14.488Z,0
2018-04-14T03:51:14.285Z,0
2018-04-14T03:52:13.948Z,0
2018-04-14T03:53:14.418Z,0
2018-04-14T03:54:14.397Z,0
2018-04-14T03:55:14.386Z,0
2018-04-14T03:56:14.099Z,0
2018-04-14T03:57:14.083Z,0
2018-04-14T03:58:14.315Z,0
2018-04-14T03:59:14.287Z,0
2018-04-14T04:00:14.017Z,0
2018-04-14T04:01:13.989Z,0
2018-04-14T04:02:13.976Z,0
2018-04-14T04:03:13.699Z,0
2018-04-14T04:04:13.675Z,0
2018-04-14T04:05:14.155Z,0
2018-04-14T04:06:14.131Z,0
2018-04-14T04:07:14.112Z,0
2018-04-14T04:08:13.836Z,0
2018-04-14T04:09:13.609Z,0
2018-04-14T04:10:14.041Z,0
2018-04-14T04:11:14.018Z,0
2018-04-14T04:12:13.749Z,0
2018-04-14T04:13:13.722Z,0
2018-04-14T04:14:13.953Z,0
2018-04-14T04:15:13.925Z,0
2018-04-14T04:16:15.692Z,0
2018-04-14T04:17:13.883Z,0
2018-04-14T04:18:13.862Z,0
2018-04-14T04:19:13.339Z,0
2018-04-14T04:20:13.829Z,0
2018-04-14T04:21:13.549Z,0
2018-04-14T04:22:13.525Z,0
2018-04-14T04:23:13.759Z,0
2018-04-14T04:24:13.492Z,0
2018-04-14T04:25:13.205Z,0
2018-04-14T04:26:13.691Z,0
2018-04-14T04:27:13.666Z,0
2018-04-14T04:28:13.787Z,0
2018-04-14T04:29:13.615Z,0
2018-04-14T04:30:13.595Z,0
2018-04-14T04:31:13.568Z,0
2018-04-14T04:32:13.311Z,0
2018-04-14T04:33:13.276Z,0
2018-04-14T04:34:13.260Z,0
2018-04-14T04:35:13.263Z,0
2018-04-14T04:36:13.210Z,0
2018-04-14T04:37:13.191Z,0
2018-04-14T04:38:13.408Z,5
2018-04-14T04:39:13.151Z,5
2018-04-14T04:40:13.375Z,0
2018-04-14T04:41:12.849Z,0
2018-04-14T04:42:13.071Z,0
2018-04-14T04:43:13.300Z,5
2018-04-14T04:44:13.277Z,5
2018-04-14T04:45:13.253Z,5
2018-04-14T04:46:13.237Z,5
2018-04-14T04:47:12.958Z,5
2018-04-14T04:48:12.940Z,5
2018-04-14T04:49:12.663Z,5
2018-04-14T04:50:13.154Z,5
2018-04-14T04:51:13.112Z,5
2018-04-14T04:52:13.098Z,10
2018-04-14T04:53:12.584Z,10
2018-04-14T04:54:13.052Z,10
2018-04-14T04:55:13.035Z,10
2018-04-14T04:56:13.031Z,10
2018-04-14T04:57:12.483Z,10
2018-04-14T04:58:12.718Z,15
2018-04-14T04:59:12.699Z,15
2018-04-14T05:00:12.676Z,20
2018-04-14T05:01:12.402Z,25
2018-04-14T05:02:12.625Z,25
2018-04-14T05:03:12.852Z,25
2018-04-14T05:04:12.581Z,20
2018-04-14T05:05:12.560Z,15
2018-04-14T05:06:12.780Z,15
2018-04-14T05:07:12.518Z,20
2018-04-14T05:08:12.488Z,30
2018-04-14T05:09:12.218Z,35
2018-04-14T05:10:12.441Z,40
2018-04-14T05:11:12.428Z,40
2018-04-14T05:12:12.400Z,45
2018-04-14T05:13:12.376Z,45
2018-04-14T05:14:12.353Z,50
2018-04-14T05:15:12.328Z,60
2018-04-14T05:16:12.309Z,70
2018-04-14T05:17:12.538Z,65
2018-04-14T05:18:12.277Z,60
2018-04-14T05:19:11.990Z,55
2018-04-14T05:20:12.474Z,50
2018-04-14T05:21:12.441Z,45
2018-04-14T05:22:12.173Z,45
2018-04-14T05:23:12.399Z,45
2018-04-14T05:24:11.947Z,45
2018-04-14T05:25:12.107Z,50
2018-04-14T05:26:11.839Z,45
2018-04-14T05:27:12.064Z,35
2018-04-14T05:28:12.287Z,30
2018-04-14T05:29:12.264Z,25
2018-04-14T05:30:11.992Z,30
2018-04-14T05:31:12.221Z,30
2018-04-14T05:32:12.047Z,30
2018-04-14T05:33:11.677Z,30
2018-04-14T05:34:12.153Z,30
2018-04-14T05:35:12.189Z,40
2018-04-14T05:36:11.861Z,45
2018-04-14T05:37:11.843Z,55
2018-04-14T05:38:11.820Z,55
2018-04-14T05:39:12.045Z,50
2018-04-14T05:40:11.270Z,45
2018-04-14T05:41:11.755Z,35
2018-04-14T05:42:11.977Z,25
2018-04-14T05:43:11.459Z,25
2018-04-14T05:44:11.674Z,25
2018-04-14T05:45:11.657Z,25
2018-04-14T05:46:11.637Z,25
2018-04-14T05:47:11.612Z,20
2018-04-14T05:48:11.589Z,20
2018-04-14T05:49:11.573Z,40
2018-04-14T05:50:11.541Z,70
2018-04-14T05:51:11.772Z,85
2018-04-14T05:52:11.744Z,90
2018-04-14T05:53:11.227Z,95
2018-04-14T05:54:10.952Z,90
2018-04-14T05:55:11.681Z,80
2018-04-14T05:56:11.658Z,75
2018-04-14T05:57:11.393Z,80
2018-04-14T05:58:11.365Z,90
2018-04-14T05:59:11.634Z,100
2018-04-14T06:00:11.655Z,105
2018-04-14T06:01:11.313Z,95
2018-04-14T06:02:11.031Z,80
2018-04-14T06:03:11.008Z,75
2018-04-14T06:04:11.486Z,95
2018-04-14T06:05:11.206Z,115
2018-04-14T06:06:11.184Z,135
2018-04-14T06:07:11.164Z,165
2018-04-14T06:08:11.253Z,205
2018-04-14T06:09:11.627Z,245
2018-04-14T06:10:11.361Z,265
2018-04-14T06:11:10.578Z,255
2018-04-14T06:12:11.302Z,260
2018-04-14T06:13:11.030Z,285
2018-04-14T06:14:11.006Z,310
2018-04-14T06:15:11.234Z,325
2018-04-14T06:16:10.714Z,320
2018-04-14T06:17:10.936Z,320
2018-04-14T06:18:10.670Z,320
2018-04-14T06:19:10.895Z,305
2018-04-14T06:20:10.887Z,275
2018-04-14T06:21:10.865Z,225
2018-04-14T06:22:10.431Z,200
2018-04-14T06:23:11.071Z,195
2018-04-14T06:24:11.044Z,200
2018-04-14T06:25:10.526Z,245
2018-04-14T06:26:10.991Z,260
2018-04-14T06:27:10.731Z,225
2018-04-14T06:28:11.073Z,205
2018-04-14T06:29:10.676Z,210
2018-04-14T06:30:10.666Z,235
2018-04-14T06:31:10.900Z,270
2018-04-14T06:32:10.376Z,300
2018-04-14T06:33:10.597Z,285
2018-04-14T06:34:10.322Z,280
2018-04-14T06:35:10.563Z,290
2018-04-14T06:36:10.527Z,320
2018-04-14T06:37:10.534Z,315
2018-04-14T06:38:10.738Z,285
2018-04-14T06:39:11.407Z,305
2018-04-14T06:40:10.691Z,335
2018-04-14T06:41:10.436Z,350
2018-04-14T06:42:10.413Z,360
2018-04-14T06:43:10.636Z,360
2018-04-14T06:44:10.592Z,365
2018-04-14T06:45:10.351Z,385
2018-04-14T06:46:10.076Z,360
2018-04-14T06:47:10.307Z,305
2018-04-14T06:48:10.033Z,300
2018-04-14T06:49:10.376Z,300
2018-04-14T06:50:10.640Z,290
2018-04-14T06:51:10.223Z,285
2018-04-14T06:52:09.995Z,280
2018-04-14T06:53:10.181Z,260
2018-04-14T06:54:10.413Z,255
2018-04-14T06:55:10.150Z,270
2018-04-14T06:56:10.119Z,255
2018-04-14T06:57:09.849Z,250
2018-04-14T06:58:10.321Z,250
2018-04-14T06:59:09.911Z,260
2018-04-14T07:00:10.036Z,260
2018-04-14T07:01:10.261Z,270
2018-04-14T07:02:09.993Z,280
2018-04-14T07:03:10.012Z,300
2018-04-14T07:04:10.192Z,340
2018-04-14T07:05:09.928Z,370
2018-04-14T07:06:09.906Z,375
2018-04-14T07:07:09.640Z,395
2018-04-14T07:08:10.112Z,410
2018-04-14T07:09:09.838Z,400
2018-04-14T07:10:09.328Z,415
2018-04-14T07:11:10.053Z,470
2018-04-14T07:12:09.783Z,565
2018-04-14T07:13:10.006Z,535
2018-04-14T07:14:09.495Z,515
2018-04-14T07:15:09.476Z,465
2018-04-14T07:16:09.953Z,435
2018-04-14T07:17:10.339Z,455
2018-04-14T07:18:09.982Z,465
2018-04-14T07:19:09.635Z,425
2018-04-14T07:20:09.617Z,425
2018-04-14T07:21:09.855Z,455
2018-04-14T07:22:09.587Z,465
2018-04-14T07:23:09.810Z,450
2018-04-14T07:24:09.536Z,460
2018-04-14T07:25:09.523Z,470
2018-04-14T07:26:09.248Z,480
2018-04-14T07:27:09.480Z,515
2018-04-14T07:28:09.464Z,525
2018-04-14T07:29:09.438Z,505
2018-04-14T07:30:09.426Z,520
2018-04-14T07:31:09.401Z,500
2018-04-14T07:32:09.642Z,475
2018-04-14T07:33:09.617Z,475
2018-04-14T07:34:09.344Z,445
2018-04-14T07:35:09.093Z,460
2018-04-14T07:36:09.552Z,435
2018-04-14T07:37:09.287Z,440
2018-04-14T07:38:09.018Z,435
2018-04-14T07:39:09.504Z,460
2018-04-14T07:40:09.516Z,430
2018-04-14T07:41:09.206Z,445
2018-04-14T07:42:08.686Z,585
2018-04-14T07:43:09.425Z,600
2018-04-14T07:44:09.144Z,470
2018-04-14T07:45:09.503Z,480
2018-04-14T07:46:09.107Z,505
2018-04-14T07:47:09.083Z,410
2018-04-14T07:48:08.813Z,335
2018-04-14T07:49:09.354Z,340
2018-04-14T07:50:09.033Z,385
2018-04-14T07:51:09.006Z,405
2018-04-14T07:52:08.984Z,415
2018-04-14T07:53:08.714Z,495
2018-04-14T07:54:08.699Z,495
2018-04-14T07:55:09.185Z,490
2018-04-14T07:56:09.154Z,550
2018-04-14T07:57:09.141Z,560
2018-04-14T07:58:08.875Z,555
2018-04-14T07:59:08.896Z,520
2018-04-14T08:00:08.836Z,555
2018-04-14T08:01:09.068Z,610
2018-04-14T08:02:08.789Z,635
2018-04-14T08:03:08.519Z,645
2018-04-14T08:04:08.257Z,635
2018-04-14T08:05:08.992Z,720
2018-04-14T08:06:08.783Z,815
2018-04-14T08:07:08.953Z,755
2018-04-14T08:08:08.675Z,695
2018-04-14T08:09:08.654Z,725
2018-04-14T08:10:08.635Z,830
2018-04-14T08:11:08.370Z,845
2018-04-14T08:12:09.474Z,740
2018-04-14T08:13:08.825Z,765
2018-04-14T08:14:08.308Z,925
2018-04-14T08:15:08.550Z,1070
2018-04-14T08:16:08.788Z,1065
2018-04-14T08:17:08.750Z,910
2018-04-14T08:18:08.486Z,845
2018-04-14T08:19:08.468Z,910
2018-04-14T08:20:08.460Z,965
2018-04-14T08:21:08.445Z,1025
2018-04-14T08:22:08.406Z,1015
2018-04-14T08:23:08.687Z,965
2018-04-14T08:24:08.859Z,915
2018-04-14T08:25:08.359Z,930
2018-04-14T08:26:08.336Z,945
2018-04-14T08:27:08.078Z,965
2018-04-14T08:28:08.307Z,960
2018-04-14T08:29:08.292Z,895
2018-04-14T08:30:08.447Z,900
2018-04-14T08:31:08.253Z,985
2018-04-14T08:32:08.237Z,1060
2018-04-14T08:33:08.215Z,1000
2018-04-14T08:34:08.198Z,1040
2018-04-14T08:35:08.437Z,1010
2018-04-14T08:36:07.665Z,1065
2018-04-14T08:37:08.399Z,1165
2018-04-14T08:38:07.635Z,1080
2018-04-14T08:39:08.130Z,950
2018-04-14T08:40:07.701Z,935
2018-04-14T08:41:08.097Z,950
2018-04-14T08:42:08.311Z,930
2018-04-14T08:43:08.295Z,945
2018-04-14T08:44:08.278Z,880
2018-04-14T08:45:08.080Z,830
2018-04-14T08:46:07.750Z,890
2018-04-14T08:47:07.977Z,890
2018-04-14T08:48:08.124Z,895
2018-04-14T08:49:08.193Z,905
2018-04-14T08:50:08.175Z,895
2018-04-14T08:51:07.658Z,885
2018-04-14T08:52:07.648Z,865
2018-04-14T08:53:07.878Z,895
2018-04-14T08:54:07.658Z,900
2018-04-14T08:55:07.584Z,930
2018-04-14T08:56:07.570Z,995
2018-04-14T08:57:07.549Z,950
2018-04-14T08:58:07.537Z,930
2018-04-14T08:59:08.024Z,1035
2018-04-14T09:00:08.007Z,995
2018-04-14T09:01:07.744Z,975
2018-04-14T09:02:08.269Z,995
2018-04-14T09:03:07.704Z,965
2018-04-14T09:04:07.930Z,955
2018-04-14T09:05:07.775Z,960
2018-04-14T09:06:08.026Z,1000
2018-04-14T09:07:07.896Z,1050
2018-04-14T09:08:07.872Z,1050
2018-04-14T09:09:07.972Z,1045
2018-04-14T09:10:07.888Z,1070
2018-04-14T09:11:07.829Z,1085
2018-04-14T09:12:07.797Z,1005
2018-04-14T09:13:07.785Z,925
2018-04-14T09:14:07.526Z,875
2018-04-14T09:15:07.501Z,920
2018-04-14T09:16:08.060Z,1005
2018-04-14T09:17:07.625Z,965
2018-04-14T09:18:07.451Z,880
2018-04-14T09:19:07.186Z,915
2018-04-14T09:20:07.423Z,960
2018-04-14T09:21:07.407Z,980
2018-04-14T09:22:07.401Z,1020
2018-04-14T09:23:07.620Z,1035
2018-04-14T09:24:07.608Z,1105
2018-04-14T09:25:07.343Z,1120
2018-04-14T09:26:07.076Z,1155
2018-04-14T09:27:07.320Z,1160
2018-04-14T09:28:07.548Z,1050
2018-04-14T09:29:07.273Z,960
2018-04-14T09:30:07.005Z,975
2018-04-14T09:31:09.735Z,1010
2018-04-14T09:32:08.302Z,1035
2018-04-14T09:33:07.218Z,1140
2018-04-14T09:34:06.962Z,1235
2018-04-14T09:35:07.172Z,1075
2018-04-14T09:36:06.918Z,1170
2018-04-14T09:37:07.040Z,1265
2018-04-14T09:38:07.138Z,1190
2018-04-14T09:39:07.120Z,995
2018-04-14T09:40:07.355Z,940
2018-04-14T09:41:06.866Z,970
2018-04-14T09:42:07.334Z,950
2018-04-14T09:43:07.385Z,845
2018-04-14T09:44:07.179Z,820
2018-04-14T09:45:06.777Z,935
2018-04-14T09:46:06.759Z,930
2018-04-14T09:47:07.061Z,920
2018-04-14T09:48:07.237Z,910
2018-04-14T09:49:07.213Z,935
2018-04-14T09:50:06.702Z,980
2018-04-14T09:51:06.433Z,895
2018-04-14T09:52:06.677Z,885
2018-04-14T09:53:06.904Z,950
2018-04-14T09:54:07.132Z,1060
2018-04-14T09:55:06.370Z,1050
2018-04-14T09:56:07.126Z,960
2018-04-14T09:57:07.091Z,945
2018-04-14T09:58:06.862Z,940
2018-04-14T09:59:06.558Z,965
2018-04-14T10:00:07.044Z,980
2018-04-14T10:01:06.772Z,900
2018-04-14T10:02:06.754Z,885
2018-04-14T10:03:07.233Z,900
2018-04-14T10:04:06.478Z,930
2018-04-14T10:05:06.965Z,940
2018-04-14T10:06:06.687Z,960
2018-04-14T10:07:06.681Z,945
2018-04-14T10:08:06.412Z,965
2018-04-14T10:09:06.146Z,1105
2018-04-14T10:10:06.631Z,1185
2018-04-14T10:11:06.620Z,1120
2018-04-14T10:12:06.883Z,1075
2018-04-14T10:13:06.834Z,1115
2018-04-14T10:14:06.812Z,1130
2018-04-14T10:15:06.546Z,1130
2018-04-14T10:16:06.780Z,1105
2018-04-14T10:17:06.519Z,1050
2018-04-14T10:18:06.507Z,945
2018-04-14T10:19:06.738Z,920
2018-04-14T10:20:06.719Z,905
2018-04-14T10:21:06.704Z,845
2018-04-14T10:22:06.441Z,825
2018-04-14T10:23:06.421Z,775
2018-04-14T10:24:06.156Z,770
2018-04-14T10:25:06.641Z,810
2018-04-14T10:26:06.373Z,1015
2018-04-14T10:27:06.770Z,985
2018-04-14T10:28:06.098Z,875
2018-04-14T10:29:06.334Z,900
2018-04-14T10:30:06.317Z,980
2018-04-14T10:31:06.042Z,855
2018-04-14T10:32:06.034Z,795
2018-04-14T10:33:06.264Z,775
2018-04-14T10:34:06.247Z,715
2018-04-14T10:35:06.488Z,855
2018-04-14T10:36:06.479Z,1065
2018-04-14T10:37:05.702Z,1380
2018-04-14T10:38:07.031Z,1510
2018-04-14T10:39:06.439Z,1560
2018-04-14T10:40:06.405Z,1510
2018-04-14T10:41:06.139Z,1345
2018-04-14T10:42:06.367Z,1240
2018-04-14T10:43:06.110Z,1280
2018-04-14T10:44:06.150Z,1195
2018-04-14T10:45:06.101Z,1200
2018-04-14T10:46:06.312Z,1255
2018-04-14T10:47:06.060Z,1265
2018-04-14T10:48:06.280Z,1310
2018-04-14T10:49:06.280Z,1260
2018-04-14T10:50:06.377Z,1305
2018-04-14T10:51:05.999Z,1280
2018-04-14T10:52:05.980Z,1105
2018-04-14T10:53:05.964Z,1095
2018-04-14T10:54:05.714Z,1125
2018-04-14T10:55:05.712Z,1195
2018-04-14T10:56:05.671Z,1220
2018-04-14T10:57:06.159Z,1225
2018-04-14T10:58:06.143Z,1230
2018-04-14T10:59:06.122Z,1140
2018-04-14T11:00:05.859Z,1160
2018-04-14T11:01:06.099Z,1380
2018-04-14T11:02:05.834Z,1285
2018-04-14T11:03:05.825Z,1270
2018-04-14T11:04:05.805Z,1275
2018-04-14T11:05:05.808Z,1245
2018-04-14T11:06:05.521Z,1210
2018-04-14T11:07:05.773Z,1310
2018-04-14T11:08:05.748Z,1300
2018-04-14T11:09:05.733Z,1470
2018-04-14T11:10:05.999Z,1520
2018-04-14T11:11:05.700Z,1250
2018-04-14T11:12:05.446Z,920
2018-04-14T11:13:05.674Z,1055
2018-04-14T11:14:05.655Z,1295
2018-04-14T11:15:05.396Z,1340
2018-04-14T11:16:05.883Z,985
2018-04-14T11:17:06.721Z,1055
2018-04-14T11:18:05.602Z,1090
2018-04-14T11:19:05.589Z,685
2018-04-14T11:20:05.575Z,590
2018-04-14T11:21:05.566Z,570
2018-04-14T11:22:05.549Z,690
2018-04-14T11:23:05.538Z,900
2018-04-14T11:24:05.521Z,880
2018-04-14T11:25:05.253Z,715
2018-04-14T11:26:05.498Z,655
2018-04-14T11:27:05.228Z,640
2018-04-14T11:28:05.214Z,615
2018-04-14T11:29:05.445Z,610
2018-04-14T11:30:05.679Z,665
2018-04-14T11:31:05.415Z,740
2018-04-14T11:32:05.688Z,970
2018-04-14T11:33:05.641Z,1305
2018-04-14T11:34:05.377Z,1295
2018-04-14T11:35:05.360Z,1225
2018-04-14T11:36:05.092Z,1410
2018-04-14T11:37:05.327Z,1610
2018-04-14T11:38:04.814Z,1675
2018-04-14T11:39:05.291Z,1735
2018-04-14T11:40:05.527Z,1715
2018-04-14T11:41:05.268Z,1675
2018-04-14T11:42:04.757Z,1615
2018-04-14T11:43:05.492Z,1525
2018-04-14T11:44:05.471Z,1465
2018-04-14T11:45:05.774Z,1335
2018-04-14T11:46:05.447Z,1375
2018-04-14T11:47:05.188Z,1375
2018-04-14T11:48:05.420Z,1340
2018-04-14T11:49:04.910Z,1255
2018-04-14T11:50:05.145Z,1175
2018-04-14T11:51:05.603Z,1120
2018-04-14T11:52:05.366Z,1065
2018-04-14T11:53:05.367Z,1040
2018-04-14T11:54:05.351Z,1030
2018-04-14T11:55:05.344Z,1055
2018-04-14T11:56:05.067Z,1085
2018-04-14T11:57:04.560Z,1160
2018-04-14T11:58:05.299Z,1200
2018-04-14T11:59:05.287Z,1285
2018-04-14T12:00:05.016Z,1160
2018-04-14T12:01:04.756Z,1055
2018-04-14T12:02:04.745Z,1030
2018-04-14T12:03:04.975Z,1020
2018-04-14T12:04:05.229Z,1035
2018-04-14T12:05:05.202Z,1080
2018-04-14T12:06:05.187Z,1070
2018-04-14T12:07:04.927Z,1010
2018-04-14T12:08:05.584Z,1000
2018-04-14T12:09:04.900Z,1040
2018-04-14T12:10:04.721Z,1070
2018-04-14T12:11:04.871Z,1020
2018-04-14T12:12:05.108Z,970
2018-04-14T12:13:05.112Z,915
2018-04-14T12:14:05.083Z,770
2018-04-14T12:15:04.823Z,810
2018-04-14T12:16:05.055Z,775
2018-04-14T12:17:05.041Z,930
2018-04-14T12:18:04.777Z,960
2018-04-14T12:19:04.763Z,1050
2018-04-14T12:20:04.748Z,970
2018-04-14T12:21:04.740Z,945
2018-04-14T12:22:04.969Z,940
2018-04-14T12:23:04.450Z,880
2018-04-14T12:24:04.943Z,980
2018-04-14T12:25:04.925Z,940
2018-04-14T12:26:04.668Z,965
2018-04-14T12:27:04.893Z,935
2018-04-14T12:28:04.390Z,900
2018-04-14T12:29:04.123Z,880
2018-04-14T12:30:04.604Z,890
2018-04-14T12:31:04.197Z,880
2018-04-14T12:32:04.829Z,905
2018-04-14T12:33:04.824Z,905
2018-04-14T12:34:04.564Z,910
2018-04-14T12:35:04.783Z,940
2018-04-14T12:36:04.773Z,995
2018-04-14T12:37:04.000Z,1025
2018-04-14T12:38:04.743Z,1010
2018-04-14T12:39:04.224Z,970
2018-04-14T12:40:04.715Z,925
2018-04-14T12:41:04.697Z,985
2018-04-14T12:42:04.437Z,980
2018-04-14T12:43:04.661Z,970
2018-04-14T12:44:04.401Z,985
2018-04-14T12:45:04.642Z,990
2018-04-14T12:46:04.363Z,950
2018-04-14T12:47:04.604Z,945
2018-04-14T12:48:04.333Z,910
2018-04-14T12:49:04.578Z,900
2018-04-14T12:50:04.317Z,910
2018-04-14T12:51:04.539Z,945
2018-04-14T12:52:04.531Z,820
2018-04-14T12:53:04.263Z,805
2018-04-14T12:54:04.004Z,930
2018-04-14T12:55:04.234Z,985
2018-04-14T12:56:04.488Z,840
2018-04-14T12:57:04.469Z,860
2018-04-14T12:58:04.600Z,865
2018-04-14T12:59:04.440Z,875
2018-04-14T13:00:04.164Z,895
2018-04-14T13:01:04.201Z,870
2018-04-14T13:02:03.886Z,895
2018-04-14T13:03:04.116Z,975
2018-04-14T13:04:03.362Z,1025
2018-04-14T13:05:04.090Z,1060
2018-04-14T13:06:04.077Z,1080
2018-04-14T13:07:04.332Z,1075
2018-04-14T13:08:04.298Z,1110
2018-04-14T13:09:04.026Z,1165
2018-04-14T13:10:04.014Z,1195
2018-04-14T13:11:04.002Z,1180
2018-04-14T13:12:04.242Z,1165
2018-04-14T13:13:04.225Z,1115
2018-04-14T13:14:03.967Z,1065
2018-04-14T13:15:04.201Z,1030
2018-04-14T13:16:03.931Z,1005
2018-04-14T13:17:03.918Z,955
2018-04-14T13:18:04.154Z,975
2018-04-14T13:19:03.983Z,990
2018-04-14T13:20:03.875Z,985
2018-04-14T13:21:03.867Z,965
2018-04-14T13:22:04.098Z,940
2018-04-14T13:23:03.846Z,945
2018-04-14T13:24:03.820Z,860
2018-04-14T13:25:04.082Z,880
2018-04-14T13:26:03.780Z,975
2018-04-14T13:27:03.838Z,1015
2018-04-14T13:28:03.781Z,990
2018-04-14T13:29:03.988Z,960
2018-04-14T13:30:03.483Z,935
2018-04-14T13:31:03.715Z,930
2018-04-14T13:32:03.707Z,955
2018-04-14T13:33:03.690Z,1010
2018-04-14T13:34:03.426Z,965
2018-04-14T13:35:03.410Z,725
2018-04-14T13:36:03.899Z,785
2018-04-14T13:37:03.633Z,835
2018-04-14T13:38:03.622Z,795
2018-04-14T13:39:03.365Z,750
2018-04-14T13:40:03.840Z,660
2018-04-14T13:41:03.571Z,660
2018-04-14T13:42:03.326Z,675
2018-04-14T13:43:03.549Z,675
2018-04-14T13:44:03.774Z,780
2018-04-14T13:45:03.266Z,850
2018-04-14T13:46:03.508Z,925
2018-04-14T13:47:03.743Z,970
2018-04-14T13:48:03.473Z,955
2018-04-14T13:49:03.474Z,915
2018-04-14T13:50:03.696Z,890
2018-04-14T13:51:03.435Z,860
2018-04-14T13:52:03.661Z,780
2018-04-14T13:53:03.152Z,775
2018-04-14T13:54:03.388Z,840
2018-04-14T13:55:03.416Z,765
2018-04-14T13:56:03.363Z,660
2018-04-14T13:57:03.591Z,635
2018-04-14T13:58:03.325Z,790
2018-04-14T13:59:03.567Z,890
2018-04-14T14:00:03.305Z,875
2018-04-14T14:01:03.539Z,745
2018-04-14T14:02:03.268Z,720
2018-04-14T14:03:03.253Z,825